createdAt,value
2016-08-09T00:00:57.083Z,0
2016-08-09T00:01:56.812Z,0
2016-08-09T00:02:56.945Z,0
2016-08-09T00:03:56.989Z,0
2016-08-09T00:04:57.025Z,0
2016-08-09T00:05:58.085Z,0
2016-08-09T00:06:56.993Z,0
2016-08-09T00:07:56.968Z,0
2016-08-09T00:08:57.016Z,0
2016-08-09T00:09:57.632Z,0
2016-08-09T00:10:57.524Z,0
2016-08-09T00:11:56.975Z,0
2016-08-09T00:12:57.379Z,0
2016-08-09T00:13:58.276Z,0
2016-08-09T00:14:56.981Z,0
2016-08-09T00:15:57.394Z,0
2016-08-09T00:17:57.059Z,0
2016-08-09T00:18:56.967Z,0
2016-08-09T00:19:56.943Z,0
2016-08-09T00:20:56.999Z,0
2016-08-09T00:21:56.930Z,0
2016-08-09T00:22:57.555Z,0
2016-08-09T00:23:56.961Z,0
2016-08-09T00:24:56.939Z,0
2016-08-09T00:25:58.008Z,0
2016-08-09T00:26:57.506Z,0
2016-08-09T00:27:57.004Z,0
2016-08-09T00:28:56.997Z,0
2016-08-09T00:29:56.985Z,0
2016-08-09T00:30:57.003Z,0
2016-08-09T00:32:56.906Z,0
2016-08-09T00:33:57.480Z,0
2016-08-09T00:34:56.959Z,0
2016-08-09T00:35:56.955Z,0
2016-08-09T00:36:56.974Z,0
2016-08-09T00:37:56.916Z,0
2016-08-09T00:38:57.245Z,0
2016-08-09T00:39:57.720Z,0
2016-08-09T00:40:57.451Z,0
2016-08-09T00:41:56.910Z,0
2016-08-09T00:42:56.971Z,0
2016-08-09T00:43:56.940Z,0
2016-08-09T00:44:57.961Z,0
2016-08-09T00:45:56.951Z,0
2016-08-09T00:46:57.441Z,0
2016-08-09T00:47:57.803Z,0
2016-08-09T00:48:56.972Z,0
2016-08-09T00:49:57.396Z,0
2016-08-09T00:50:56.928Z,0
2016-08-09T00:51:56.950Z,0
2016-08-09T00:52:56.963Z,0
2016-08-09T00:53:57.344Z,0
2016-08-09T00:54:57.364Z,0
2016-08-09T00:55:56.997Z,0
2016-08-09T00:56:57.042Z,0
2016-08-09T00:57:56.966Z,0
2016-08-09T00:58:56.972Z,0
2016-08-09T00:59:56.950Z,0
2016-08-09T01:00:57.044Z,0
2016-08-09T01:01:57.104Z,0
2016-08-09T01:02:56.972Z,0
2016-08-09T01:03:57.039Z,0
2016-08-09T01:04:57.002Z,0
2016-08-09T01:05:57.335Z,0
2016-08-09T01:06:56.957Z,0
2016-08-09T01:07:57.311Z,0
2016-08-09T01:08:57.222Z,0
2016-08-09T01:09:57.185Z,0
2016-08-09T01:10:56.945Z,0
2016-08-09T01:11:56.953Z,0
2016-08-09T01:12:56.985Z,0
2016-08-09T01:13:57.286Z,0
2016-08-09T01:14:56.981Z,0
2016-08-09T01:15:56.949Z,0
2016-08-09T01:16:56.970Z,0
2016-08-09T01:17:57.690Z,0
2016-08-09T01:18:56.970Z,0
2016-08-09T01:19:57.328Z,0
2016-08-09T01:20:57.483Z,0
2016-08-09T01:21:57.392Z,0
2016-08-09T01:22:56.961Z,0
2016-08-09T01:23:57.294Z,0
2016-08-09T01:24:56.960Z,0
2016-08-09T01:25:56.988Z,0
2016-08-09T01:26:56.977Z,0
2016-08-09T01:27:56.974Z,0
2016-08-09T01:28:57.093Z,0
2016-08-09T01:29:57.816Z,0
2016-08-09T01:30:57.016Z,0
2016-08-09T01:31:58.143Z,0
2016-08-09T01:32:57.196Z,0
2016-08-09T01:33:56.962Z,0
2016-08-09T01:34:57.313Z,0
2016-08-09T01:35:56.983Z,0
2016-08-09T01:36:57.615Z,0
2016-08-09T01:37:58.066Z,0
2016-08-09T01:38:58.048Z,0
2016-08-09T01:39:57.688Z,0
2016-08-09T01:40:58.574Z,0
2016-08-09T01:41:58.097Z,0
2016-08-09T01:42:58.593Z,0
2016-08-09T01:43:57.534Z,0
2016-08-09T01:44:57.693Z,0
2016-08-09T01:45:57.246Z,0
2016-08-09T01:46:57.512Z,0
2016-08-09T01:47:57.364Z,0
2016-08-09T01:48:58.007Z,0
2016-08-09T01:49:57.168Z,0
2016-08-09T01:50:57.166Z,0
2016-08-09T01:51:57.157Z,0
2016-08-09T01:52:57.227Z,0
2016-08-09T01:53:57.238Z,0
2016-08-09T01:54:57.004Z,0
2016-08-09T01:55:57.240Z,0
2016-08-09T01:56:57.030Z,0
2016-08-09T01:57:57.082Z,0
2016-08-09T01:58:58.414Z,0
2016-08-09T01:59:57.166Z,0
2016-08-09T02:00:57.054Z,0
2016-08-09T02:01:57.107Z,0
2016-08-09T02:02:57.065Z,0
2016-08-09T02:03:57.111Z,0
2016-08-09T02:04:57.105Z,0
2016-08-09T02:05:57.257Z,0
2016-08-09T02:06:57.217Z,0
2016-08-09T02:07:57.091Z,0
2016-08-09T02:08:57.142Z,0
2016-08-09T02:09:57.177Z,0
2016-08-09T02:10:57.106Z,0
2016-08-09T02:11:58.115Z,0
2016-08-09T02:12:57.131Z,0
2016-08-09T02:13:57.066Z,0
2016-08-09T02:14:57.088Z,0
2016-08-09T02:15:57.101Z,0
2016-08-09T02:16:57.010Z,0
2016-08-09T02:17:57.013Z,0
2016-08-09T02:18:57.038Z,0
2016-08-09T02:19:58.316Z,0
2016-08-09T02:20:57.317Z,0
2016-08-09T02:21:57.173Z,0
2016-08-09T02:22:57.343Z,0
2016-08-09T02:23:57.730Z,0
2016-08-09T02:24:57.184Z,0
2016-08-09T02:25:57.305Z,0
2016-08-09T02:26:57.170Z,0
2016-08-09T02:27:57.101Z,0
2016-08-09T02:28:57.505Z,0
2016-08-09T02:29:57.129Z,0
2016-08-09T02:30:57.341Z,0
2016-08-09T02:31:57.127Z,0
2016-08-09T02:32:57.298Z,0
2016-08-09T02:33:57.279Z,0
2016-08-09T02:34:57.171Z,0
2016-08-09T02:35:57.231Z,0
2016-08-09T02:36:57.232Z,0
2016-08-09T02:37:57.312Z,0
2016-08-09T02:38:57.189Z,0
2016-08-09T02:39:57.007Z,0
2016-08-09T02:40:57.007Z,0
2016-08-09T02:41:57.340Z,0
2016-08-09T02:42:57.163Z,0
2016-08-09T02:43:57.852Z,0
2016-08-09T02:44:57.387Z,0
2016-08-09T02:45:57.114Z,0
2016-08-09T02:46:57.107Z,0
2016-08-09T02:47:58.152Z,0
2016-08-09T02:48:57.311Z,0
2016-08-09T02:49:57.305Z,0
2016-08-09T02:50:57.093Z,0
2016-08-09T02:51:57.118Z,0
2016-08-09T02:52:57.243Z,0
2016-08-09T02:53:57.924Z,0
2016-08-09T02:54:57.115Z,0
2016-08-09T02:55:57.140Z,0
2016-08-09T02:56:57.356Z,0
2016-08-09T02:57:57.245Z,0
2016-08-09T02:58:57.206Z,0
2016-08-09T02:59:57.124Z,0
2016-08-09T03:00:57.578Z,0
2016-08-09T03:01:57.047Z,0
2016-08-09T03:02:57.925Z,0
2016-08-09T03:03:57.264Z,0
2016-08-09T03:04:57.220Z,0
2016-08-09T03:05:57.403Z,0
2016-08-09T03:06:57.776Z,0
2016-08-09T03:07:57.795Z,0
2016-08-09T03:08:57.125Z,0
2016-08-09T03:09:57.243Z,0
2016-08-09T03:10:57.227Z,0
2016-08-09T03:11:57.061Z,0
2016-08-09T03:12:57.290Z,0
2016-08-09T03:13:57.249Z,0
2016-08-09T03:14:57.230Z,0
2016-08-09T03:15:57.069Z,0
2016-08-09T03:16:57.429Z,0
2016-08-09T03:17:57.686Z,0
2016-08-09T03:18:57.280Z,0
2016-08-09T03:19:57.359Z,0
2016-08-09T03:20:57.130Z,0
2016-08-09T03:21:57.179Z,0
2016-08-09T03:22:57.193Z,0
2016-08-09T03:23:57.137Z,0
2016-08-09T03:24:57.850Z,0
2016-08-09T03:25:57.191Z,0
2016-08-09T03:26:57.859Z,0
2016-08-09T03:27:57.457Z,0
2016-08-09T03:28:57.110Z,0
2016-08-09T03:29:57.100Z,0
2016-08-09T03:30:57.583Z,0
2016-08-09T03:31:57.081Z,0
2016-08-09T03:32:57.190Z,4
2016-08-09T03:33:57.129Z,4
2016-08-09T03:34:57.204Z,0
2016-08-09T03:35:57.166Z,0
2016-08-09T03:36:57.283Z,0
2016-08-09T03:37:57.191Z,4
2016-08-09T03:38:57.281Z,4
2016-08-09T03:39:57.266Z,4
2016-08-09T03:40:57.460Z,4
2016-08-09T03:41:57.220Z,8
2016-08-09T03:42:57.225Z,8
2016-08-09T03:43:57.128Z,8
2016-08-09T03:44:57.220Z,12
2016-08-09T03:45:57.316Z,12
2016-08-09T03:46:57.191Z,16
2016-08-09T03:47:57.400Z,16
2016-08-09T03:48:57.132Z,16
2016-08-09T03:49:57.239Z,20
2016-08-09T03:50:57.208Z,24
2016-08-09T03:51:57.272Z,24
2016-08-09T03:52:57.530Z,28
2016-08-09T03:53:57.139Z,32
2016-08-09T03:54:58.887Z,36
2016-08-09T03:55:57.386Z,40
2016-08-09T03:57:40.398Z,48
2016-08-09T03:58:58.697Z,52
2016-08-09T04:00:15.993Z,64
2016-08-09T04:00:55.992Z,68
2016-08-09T04:01:49.845Z,72
2016-08-09T04:02:49.901Z,84
2016-08-09T04:03:50.126Z,88
2016-08-09T04:04:49.794Z,96
2016-08-09T04:05:50.085Z,100
2016-08-09T04:06:49.756Z,108
2016-08-09T04:07:49.873Z,112
2016-08-09T04:08:49.665Z,120
2016-08-09T04:09:50.328Z,128
2016-08-09T04:10:49.750Z,136
2016-08-09T04:11:49.728Z,148
2016-08-09T04:12:50.040Z,156
2016-08-09T04:13:50.497Z,164
2016-08-09T04:14:50.339Z,176
2016-08-09T04:15:49.884Z,192
2016-08-09T04:16:50.044Z,212
2016-08-09T04:17:49.719Z,216
2016-08-09T04:18:50.456Z,208
2016-08-09T04:19:49.739Z,200
2016-08-09T04:20:49.991Z,184
2016-08-09T04:21:49.707Z,180
2016-08-09T04:22:49.798Z,184
2016-08-09T04:23:50.142Z,184
2016-08-09T04:24:49.956Z,184
2016-08-09T04:25:50.305Z,180
2016-08-09T04:26:50.141Z,176
2016-08-09T04:27:50.360Z,176
2016-08-09T04:28:49.783Z,168
